Time;durP1;ratioP1;P1;durP2;ratioP2;P2;SDS_P1;SDS_P2;PMS_P1;PMS_P2;Temp;Humidity;BMP_temperature;BMP_pressure;BME280_temperature;BME280_humidity;BME280_pressure;Samples;Min_cycle;Max_cycle;Signal;HPM_P1;HPM_P2
2022/01/06 00:00:57;;;;;;;5.50;1.47;;;;;;;3.38;87.34;100022.59;5017558;28;20210;-80
2022/01/06 00:03:24;;;;;;;8.70;1.57;;;;;;;3.42;87.64;100027.78;5017341;28;20210;-80
2022/01/06 00:05:50;;;;;;;5.17;1.30;;;;;;;3.36;87.35;100033.78;5017936;28;20226;-79
2022/01/06 00:08:18;;;;;;;9.20;1.63;;;;;;;3.35;88.19;100020.03;5018507;28;20199;-80
2022/01/06 00:10:47;;;;;;;6.23;1.20;;;;;;;3.39;88.07;100015.75;5016093;28;20265;-81
2022/01/06 00:13:19;;;;;;;7.50;1.77;;;;;;;3.38;88.32;100026.91;5017867;28;20589;-81
2022/01/06 00:16:01;;;;;;;5.87;1.70;;;;;;;3.41;87.59;100026.94;5032924;28;20280;-80
2022/01/06 00:18:43;;;;;;;6.83;2.43;;;;;;;3.36;88.10;100023.47;5037097;28;20583;-80
2022/01/06 00:23:53;;;;;;;4.97;1.33;;;;;;;3.31;88.69;100022.56;5023585;28;20245;-81
2022/01/06 00:26:20;;;;;;;6.17;1.60;;;;;;;3.23;89.40;100008.78;5037548;28;20191;-81
2022/01/06 00:28:47;;;;;;;5.60;1.20;;;;;;;3.24;89.35;100000.22;5037561;28;20202;-81
2022/01/06 00:31:14;;;;;;;5.73;1.57;;;;;;;3.26;89.11;100027.72;5036700;28;20332;-81
2022/01/06 00:33:42;;;;;;;2.87;1.40;;;;;;;3.21;89.02;100020.81;5037367;28;20230;-80
2022/01/06 00:36:08;;;;;;;3.73;1.43;;;;;;;3.28;88.95;100030.31;5036990;28;20587;-80
2022/01/06 00:38:34;;;;;;;8.20;1.50;;;;;;;3.29;89.06;100011.41;5037169;28;20210;-81
2022/01/06 00:41:01;;;;;;;9.57;1.93;;;;;;;3.26;89.66;100027.72;5036520;28;20214;-81
2022/01/06 00:43:27;;;;;;;8.87;2.67;;;;;;;3.13;90.91;99989.84;5026808;28;20608;-80
2022/01/06 00:45:55;;;;;;;4.47;1.50;;;;;;;3.10;90.68;99987.28;5018083;28;20227;-80
2022/01/06 00:48:21;;;;;;;4.93;1.93;;;;;;;3.21;91.37;99959.81;5017207;28;20236;-81
2022/01/06 00:50:47;;;;;;;9.77;1.60;;;;;;;3.15;91.85;99952.91;5017069;28;20214;-81
2022/01/06 00:53:14;;;;;;;5.73;1.33;;;;;;;3.17;91.54;99960.63;5016646;28;20713;-80
2022/01/06 00:55:40;;;;;;;6.67;1.40;;;;;;;3.17;91.72;99960.63;5034037;28;20226;-81
2022/01/06 00:58:10;;;;;;;7.47;1.80;;;;;;;3.15;91.42;99972.66;5036666;28;20256;-80
2022/01/06 01:00:40;;;;;;;8.87;1.60;;;;;;;3.08;92.01;99963.19;5036669;28;20260;-80
2022/01/06 01:03:11;;;;;;;9.77;2.40;;;;;;;3.03;93.33;99958.00;5033646;28;20267;-81
2022/01/06 01:05:38;;;;;;;8.60;1.83;;;;;;;3.00;93.69;99950.28;5017594;28;20237;-80
2022/01/06 01:08:04;;;;;;;4.33;1.30;;;;;;;2.97;94.05;99942.50;5016835;28;20210;-81
2022/01/06 01:10:31;;;;;;;7.23;1.30;;;;;;;2.85;94.51;99934.72;5016289;28;20626;-79
2022/01/06 01:12:58;;;;;;;4.93;1.10;;;;;;;2.84;95.14;99914.97;5017011;28;20227;-80
2022/01/06 01:15:26;;;;;;;9.93;2.10;;;;;;;2.87;95.29;99920.13;5016573;28;20226;-81
2022/01/06 01:17:53;;;;;;;7.83;2.10;;;;;;;2.80;95.65;99929.56;5017338;28;20209;-81
2022/01/06 01:20:22;;;;;;;5.73;1.50;;;;;;;2.65;96.75;99944.94;5016768;28;20258;-81
2022/01/06 01:22:49;;;;;;;2.77;1.10;;;;;;;2.62;95.99;99948.38;5017336;28;20207;-81
2022/01/06 01:25:15;;;;;;;2.10;1.13;;;;;;;2.34;93.23;100010.03;5036571;28;20796;-80
2022/01/06 01:27:44;;;;;;;2.70;0.70;;;;;;;2.02;91.82;100084.38;5036853;28;20618;-81
2022/01/06 01:30:15;;;;;;;2.67;1.00;;;;;;;2.14;92.36;100093.94;5035860;28;20236;-81
2022/01/06 01:32:46;;;;;;;3.30;1.00;;;;;;;1.93;91.76;100097.19;5036326;28;20218;-81
2022/01/06 01:35:13;;;;;;;4.67;2.67;;;;;;;1.86;92.82;100085.09;5036886;28;20223;-81
2022/01/06 01:37:41;;;;;;;2.93;1.53;;;;;;;1.77;94.27;100060.13;5036786;28;20210;-80
2022/01/06 01:40:09;;;;;;;4.63;1.53;;;;;;;1.73;94.98;100036.06;5035208;28;20228;-81
2022/01/06 01:42:35;;;;;;;3.17;1.30;;;;;;;1.77;96.19;100004.38;5035691;28;20832;-81
2022/01/06 01:45:03;;;;;;;2.70;1.07;;;;;;;1.90;95.83;100015.69;5021604;28;20716;-81
2022/01/06 01:47:32;;;;;;;4.87;1.40;;;;;;;1.98;95.77;100041.44;5016715;28;20305;-80
2022/01/06 01:50:10;;;;;;;3.93;1.60;;;;;;;2.13;95.74;100036.44;5016051;28;20211;-80
2022/01/06 01:52:37;;;;;;;1.97;0.97;;;;;;;2.08;93.56;100092.22;5016928;28;20254;-81
2022/01/06 01:55:10;;;;;;;3.17;0.97;;;;;;;2.17;93.34;100119.75;5029237;28;20320;-81
2022/01/06 01:57:38;;;;;;;3.00;0.90;;;;;;;2.27;92.77;100139.56;5036543;28;20198;-81
2022/01/06 02:00:07;;;;;;;4.50;0.90;;;;;;;2.15;92.50;100175.50;5036049;28;20260;-81
2022/01/06 02:02:34;;;;;;;3.97;1.10;;;;;;;2.06;91.18;100208.84;5035623;28;20209;-81
2022/01/06 02:05:00;;;;;;;5.67;1.00;;;;;;;1.89;91.61;100216.38;5021750;28;20288;-81
2022/01/06 02:07:27;;;;;;;1.70;0.73;;;;;;;1.94;91.47;100219.88;5016728;28;20215;-81
2022/01/06 02:09:53;;;;;;;2.87;1.00;;;;;;;1.92;90.54;100232.75;5020241;28;20218;-81
2022/01/06 02:12:26;;;;;;;1.97;0.80;;;;;;;1.98;89.93;100255.09;5020469;28;20213;-81
2022/01/06 02:14:52;;;;;;;4.53;1.10;;;;;;;1.86;89.64;100284.09;5027597;28;20260;-80
2022/01/06 02:17:19;;;;;;;3.20;1.10;;;;;;;1.74;89.67;100294.22;5040646;28;20214;-81
2022/01/06 02:19:56;;;;;;;4.63;0.80;;;;;;;1.70;89.33;100289.88;5039944;28;20206;-81
2022/01/06 02:22:23;;;;;;;4.03;1.03;;;;;;;1.77;89.21;100294.28;5041156;28;20193;-81
2022/01/06 02:24:50;;;;;;;2.10;0.87;;;;;;;1.57;89.70;100299.16;5040074;28;20786;-81
2022/01/06 02:27:19;;;;;;;2.53;0.80;;;;;;;1.48;90.44;100276.69;5039945;28;20201;-81
2022/01/06 02:29:46;;;;;;;4.13;1.20;;;;;;;1.33;90.89;100264.47;5039652;28;20198;-80
2022/01/06 02:32:16;;;;;;;5.97;1.23;;;;;;;1.45;91.99;100245.81;5040529;28;20210;-81
2022/01/06 02:34:43;;;;;;;3.83;1.37;;;;;;;1.43;91.80;100239.78;5040929;28;20257;-80
2022/01/06 02:37:12;;;;;;;3.70;1.40;;;;;;;1.36;91.93;100248.22;5040915;28;20228;-81
2022/01/06 02:39:39;;;;;;;4.60;2.13;;;;;;;1.26;92.36;100239.50;5040332;28;20207;-81
2022/01/06 02:42:06;;;;;;;7.33;1.83;;;;;;;1.12;93.22;100225.56;5040680;28;20260;-81
2022/01/06 02:44:33;;;;;;;2.73;1.23;;;;;;;0.94;94.27;100195.31;5041322;28;20254;-81
2022/01/06 02:47:00;;;;;;;3.70;1.30;;;;;;;0.86;94.66;100164.34;5040581;28;20211;-81
2022/01/06 02:49:26;;;;;;;2.90;1.23;;;;;;;0.76;95.94;100126.50;5040580;28;20264;-81
2022/01/06 02:51:52;;;;;;;2.77;1.20;;;;;;;0.70;96.71;100124.72;5040723;28;20202;-80
2022/01/06 02:54:21;;;;;;;4.70;1.50;;;;;;;0.61;97.04;100114.28;5041599;28;20234;-80
2022/01/06 02:56:48;;;;;;;3.07;1.90;;;;;;;0.67;96.92;100108.38;5040013;28;20248;-81
2022/01/06 02:59:15;;;;;;;3.73;1.50;;;;;;;0.60;97.12;100104.84;5039573;28;20586;-81
2022/01/06 03:01:42;;;;;;;2.53;1.50;;;;;;;0.59;98.05;100093.72;5039690;28;20261;-81
2022/01/06 03:04:11;;;;;;;8.13;1.60;;;;;;;0.52;98.64;100091.03;5036757;28;20289;-81
2022/01/06 03:06:38;;;;;;;6.27;2.23;;;;;;;0.47;98.65;100090.94;5020277;28;20229;-81
2022/01/06 03:09:06;;;;;;;6.43;1.50;;;;;;;0.38;98.96;100085.69;5020054;28;20212;-81
2022/01/06 03:11:39;;;;;;;4.83;1.67;;;;;;;0.32;100.00;100076.16;5019492;28;20237;-81
2022/01/06 03:14:06;;;;;;;5.27;1.83;;;;;;;0.29;100.00;100063.25;5018697;28;20237;-81
2022/01/06 03:16:33;;;;;;;3.70;1.63;;;;;;;0.31;100.00;100051.31;5019307;28;20203;-81
2022/01/06 03:19:00;;;;;;;4.00;1.70;;;;;;;0.29;100.00;100045.28;5019046;28;20298;-80
2022/01/06 03:21:26;;;;;;;4.93;1.97;;;;;;;0.30;100.00;100052.16;5018093;28;20210;-80
2022/01/06 03:23:54;;;;;;;2.93;1.77;;;;;;;0.29;100.00;100059.84;5020708;28;20226;-80
2022/01/06 03:26:20;;;;;;;5.73;1.57;;;;;;;0.25;100.00;100060.63;5038277;28;20273;-80
2022/01/06 03:28:48;;;;;;;3.37;1.40;;;;;;;0.22;100.00;100065.69;5038342;28;20214;-81
2022/01/06 03:31:14;;;;;;;2.97;1.40;;;;;;;0.22;100.00;100071.72;5036712;28;20255;-81
2022/01/06 03:33:41;;;;;;;3.53;1.70;;;;;;;0.21;100.00;100085.38;5037905;28;20202;-81
2022/01/06 03:36:07;;;;;;;2.93;1.30;;;;;;;0.15;100.00;100086.13;5038394;28;20202;-81
2022/01/06 03:38:34;;;;;;;3.63;1.70;;;;;;;0.15;100.00;100092.97;5037823;28;20210;-81
2022/01/06 03:41:00;;;;;;;3.03;1.20;;;;;;;0.12;100.00;100095.47;5037768;28;20261;-81
2022/01/06 03:43:27;;;;;;;2.97;1.50;;;;;;;0.05;99.75;100104.75;5038325;28;20244;-80
2022/01/06 03:45:54;;;;;;;2.47;0.93;;;;;;;-0.01;100.00;100118.34;5028720;28;20234;-81
2022/01/06 03:48:21;;;;;;;3.10;1.30;;;;;;;0.00;99.65;100126.94;5018365;28;20302;-81
2022/01/06 03:50:47;;;;;;;3.43;1.33;;;;;;;-0.02;98.89;100139.72;5017874;28;20277;-81
2022/01/06 03:53:13;;;;;;;3.43;1.27;;;;;;;-0.07;98.65;100149.03;5018599;28;20250;-80
2022/01/06 03:55:40;;;;;;;3.17;1.00;;;;;;;-0.04;98.23;100163.59;5035560;28;20222;-81
2022/01/06 03:58:10;;;;;;;5.43;1.10;;;;;;;-0.03;97.77;100173.03;5038013;28;20202;-81
2022/01/06 04:00:36;;;;;;;5.33;0.97;;;;;;;-0.07;97.16;100187.50;5037075;28;21073;-79
2022/01/06 04:03:04;;;;;;;2.30;0.80;;;;;;;-0.08;97.14;100210.56;5038251;28;20792;-81
2022/01/06 04:05:31;;;;;;;1.57;0.73;;;;;;;-0.08;96.38;100210.56;5036399;28;20225;-81
2022/01/06 04:07:58;;;;;;;4.27;0.90;;;;;;;-0.08;96.21;100233.63;5037992;28;20206;-81
2022/01/06 04:10:24;;;;;;;3.80;0.83;;;;;;;-0.12;96.47;100242.09;5038079;28;20209;-81
2022/01/06 04:12:51;;;;;;;2.83;0.60;;;;;;;-0.09;96.10;100239.63;5037840;28;20213;-80
2022/01/06 04:15:17;;;;;;;1.10;0.83;;;;;;;-0.10;95.42;100255.84;5037383;28;20229;-80
2022/01/06 04:17:44;;;;;;;4.57;1.00;;;;;;;-0.10;94.92;100273.78;5037793;28;20202;-81
2022/01/06 04:20:13;;;;;;;1.33;0.67;;;;;;;-0.10;94.98;100279.81;5037840;28;20210;-81
2022/01/06 04:22:40;;;;;;;3.03;0.80;;;;;;;-0.11;94.39;100290.88;5044122;28;20213;-79
2022/01/06 04:25:09;;;;;;;2.00;0.60;;;;;;;-0.10;94.54;100304.56;5062450;28;20232;-79
2022/01/06 04:27:37;;;;;;;2.83;0.60;;;;;;;-0.09;94.26;100314.88;5051563;28;20240;-79
2022/01/06 04:30:05;;;;;;;2.47;0.73;;;;;;;-0.11;93.46;100321.69;5052595;28;20198;-79
2022/01/06 04:32:32;;;;;;;3.27;0.50;;;;;;;-0.10;93.56;100332.78;5053252;28;20199;-79
2022/01/06 04:34:58;;;;;;;4.50;0.67;;;;;;;-0.15;93.48;100347.25;5053627;28;20723;-80
2022/01/06 04:37:27;;;;;;;1.80;0.63;;;;;;;-0.16;92.91;100358.31;5054454;28;20211;-80
2022/01/06 04:39:54;;;;;;;3.50;0.60;;;;;;;-0.16;92.86;100355.75;5054114;28;20233;-80
2022/01/06 04:42:20;;;;;;;2.10;0.83;;;;;;;-0.24;93.51;100353.88;5054970;28;20206;-79
2022/01/06 04:44:47;;;;;;;1.27;0.50;;;;;;;-0.30;94.67;100338.31;5054018;28;20261;-80
2022/01/06 04:47:13;;;;;;;1.23;0.50;;;;;;;-0.37;95.31;100328.78;5047306;28;20229;-80
2022/01/06 04:49:39;;;;;;;2.43;0.60;;;;;;;-0.27;94.12;100325.59;5034380;28;20561;-80
2022/01/06 04:52:06;;;;;;;4.83;0.80;;;;;;;-0.19;94.25;100353.97;5034860;28;20207;-80
2022/01/06 04:54:34;;;;;;;2.83;0.57;;;;;;;-0.18;93.04;100386.47;5044450;28;20248;-80
2022/01/06 04:57:01;;;;;;;2.27;0.80;;;;;;;-0.23;93.24;100406.03;5053414;28;20202;-80
2022/01/06 04:59:27;;;;;;;1.50;0.93;;;;;;;-0.30;93.92;100405.00;5053177;28;20202;-79
2022/01/06 05:01:53;;;;;;;3.33;0.70;;;;;;;-0.38;93.82;100409.09;5053902;28;20229;-80
2022/01/06 05:04:20;;;;;;;0.40;0.40;;;;;;;-0.37;93.25;100412.53;5046779;28;20257;-78
2022/01/06 05:06:46;;;;;;;1.07;0.50;;;;;;;-0.38;92.80;100429.59;5043523;28;20695;-78
2022/01/06 05:09:15;;;;;;;2.27;0.77;;;;;;;-0.34;92.70;100435.69;5024326;28;20258;-78
2022/01/06 05:11:42;;;;;;;1.23;0.40;;;;;;;-0.36;93.06;100434.78;5024260;28;20309;-79
2022/01/06 05:14:09;;;;;;;1.73;0.50;;;;;;;-0.30;92.41;100451.16;5018081;28;20218;-80
2022/01/06 05:16:35;;;;;;;4.93;0.60;;;;;;;-0.29;92.14;100459.75;5016805;28;20208;-80
2022/01/06 05:19:01;;;;;;;1.37;0.70;;;;;;;-0.23;93.23;100447.09;5016493;28;20742;-80
2022/01/06 05:21:30;;;;;;;2.83;0.97;;;;;;;-0.20;93.09;100442.00;5016486;28;20226;-80
2022/01/06 05:23:56;;;;;;;3.37;0.60;;;;;;;-0.16;93.17;100448.09;5019369;28;20226;-81
2022/01/06 05:26:23;;;;;;;4.23;0.60;;;;;;;-0.24;93.42;100440.19;5085410;22;20289;-79
2022/01/06 05:28:51;;;;;;;1.83;0.67;;;;;;;-0.10;93.61;100436.31;5089123;28;20223;-80
2022/01/06 05:31:17;;;;;;;1.17;0.70;;;;;;;-0.05;94.05;100433.84;5071625;28;20636;-79
2022/01/06 05:33:44;;;;;;;2.47;1.27;;;;;;;0.03;94.15;100436.59;5093304;28;20196;-80
2022/01/06 05:36:10;;;;;;;2.23;0.80;;;;;;;0.09;93.66;100449.56;5093181;28;20770;-79
2022/01/06 05:38:37;;;;;;;3.33;0.93;;;;;;;0.06;93.14;100467.44;5092822;28;20200;-79
2022/01/06 05:41:03;;;;;;;1.27;0.80;;;;;;;0.08;92.94;100469.22;5092155;28;20233;-79
2022/01/06 05:43:29;;;;;;;1.40;0.83;;;;;;;0.13;93.08;100479.59;5090918;28;20618;-78
2022/01/06 05:45:58;;;;;;;3.53;1.17;;;;;;;0.17;93.66;100471.13;5092136;28;20232;-76
2022/01/06 05:48:24;;;;;;;2.50;1.20;;;;;;;0.11;93.00;100491.53;5092338;28;20239;-78
2022/01/06 05:50:51;;;;;;;2.70;1.20;;;;;;;0.06;92.20;100485.41;5091827;28;20203;-79
2022/01/06 05:53:18;;;;;;;0.90;0.83;;;;;;;0.05;92.87;100487.09;5092667;28;20674;-79
2022/01/06 05:55:44;;;;;;;2.70;1.20;;;;;;;0.02;92.23;100506.69;5091726;28;20220;-77
2022/01/06 05:58:11;;;;;;;3.17;1.10;;;;;;;-0.05;92.64;100503.13;5091923;28;20204;-78
2022/01/06 06:00:37;;;;;;;2.33;1.03;;;;;;;0.04;92.72;100489.63;5091288;28;20193;-78
2022/01/06 06:03:05;;;;;;;3.10;0.90;;;;;;;0.09;93.27;100494.06;5091716;28;20208;-78
2022/01/06 06:05:31;;;;;;;2.23;0.80;;;;;;;0.05;93.00;100489.69;5091747;28;20277;-77
2022/01/06 06:07:58;;;;;;;2.00;1.10;;;;;;;0.02;93.19;100484.50;5091783;28;20253;-78
2022/01/06 06:10:24;;;;;;;2.37;1.03;;;;;;;0.08;93.29;100492.34;5090566;28;20686;-78
2022/01/06 06:12:52;;;;;;;3.63;1.40;;;;;;;0.09;92.93;100499.19;5091408;28;20674;-78
2022/01/06 06:15:20;;;;;;;2.13;0.87;;;;;;;0.20;93.48;100514.88;5090924;28;20273;-77
2022/01/06 06:17:47;;;;;;;1.53;0.90;;;;;;;0.24;93.38;100513.22;5091816;28;20203;-78
2022/01/06 06:20:15;;;;;;;0.83;0.70;;;;;;;0.27;93.03;100511.59;5091341;28;20211;-79
2022/01/06 06:22:41;;;;;;;2.97;0.83;;;;;;;0.36;93.14;100522.09;5091764;28;20204;-79
2022/01/06 06:25:08;;;;;;;1.53;1.00;;;;;;;0.41;92.76;100523.91;5092698;28;20281;-78
2022/01/06 06:27:35;;;;;;;2.47;0.80;;;;;;;0.37;92.58;100531.50;5097933;28;20687;-78
2022/01/06 06:30:01;;;;;;;1.90;0.80;;;;;;;0.38;93.20;100529.84;5092213;28;20200;-78
2022/01/06 06:32:28;;;;;;;2.63;0.90;;;;;;;0.33;91.58;100560.50;5092627;28;20196;-78
2022/01/06 06:34:55;;;;;;;3.30;0.97;;;;;;;0.33;91.63;100569.94;5091835;28;20694;-78
2022/01/06 06:37:23;;;;;;;1.63;1.10;;;;;;;0.35;91.59;100576.81;5092520;28;20204;-79
2022/01/06 06:39:49;;;;;;;3.27;1.17;;;;;;;0.27;90.92;100585.19;5092430;28;20208;-78
2022/01/06 06:42:16;;;;;;;3.10;1.00;;;;;;;0.33;90.91;100599.03;5093125;28;20347;-77
2022/01/06 06:44:42;;;;;;;2.70;1.43;;;;;;;0.37;91.56;100605.97;5092532;28;20737;-78
2022/01/06 06:47:09;;;;;;;2.13;0.97;;;;;;;0.39;91.26;100613.72;5092519;28;20635;-77
2022/01/06 06:49:36;;;;;;;3.10;0.90;;;;;;;0.31;90.71;100634.06;5090956;28;20212;-78
2022/01/06 06:52:04;;;;;;;2.80;1.30;;;;;;;0.24;90.63;100639.88;5091134;28;20200;-77
2022/01/06 06:54:31;;;;;;;2.00;0.87;;;;;;;0.33;90.61;100637.53;5093045;28;20220;-77
2022/01/06 06:56:58;;;;;;;1.80;0.77;;;;;;;0.40;91.01;100633.44;5094916;28;20224;-78
2022/01/06 06:59:25;;;;;;;3.33;1.20;;;;;;;0.37;91.00;100629.09;5094390;28;20610;-77
2022/01/06 07:01:51;;;;;;;4.87;0.87;;;;;;;0.41;91.06;100636.88;5093302;28;20261;-77
2022/01/06 07:04:18;;;;;;;1.87;0.90;;;;;;;0.44;90.70;100648.09;5093840;28;20249;-78
2022/01/06 07:06:44;;;;;;;2.63;1.73;;;;;;;0.42;90.46;100649.75;5094102;28;20218;-77
2022/01/06 07:09:11;;;;;;;1.87;1.10;;;;;;;0.41;90.85;100660.00;5094205;28;20200;-78
2022/01/06 07:11:39;;;;;;;2.00;1.00;;;;;;;0.41;90.13;100668.56;5093822;28;20247;-77
2022/01/06 07:14:05;;;;;;;2.10;0.90;;;;;;;0.41;90.21;100662.56;5094628;28;20220;-79
2022/01/06 07:16:32;;;;;;;2.13;1.30;;;;;;;0.38;90.23;100671.06;5094791;28;20701;-78
2022/01/06 07:18:58;;;;;;;2.60;2.00;;;;;;;0.30;90.40;100676.00;5093589;28;20200;-78
2022/01/06 07:21:25;;;;;;;2.13;1.37;;;;;;;0.30;90.35;100686.25;5093744;28;20246;-78
2022/01/06 07:23:52;;;;;;;0.97;0.83;;;;;;;0.32;90.22;100689.72;5094376;28;20639;-77
2022/01/06 07:26:19;;;;;;;1.53;1.20;;;;;;;0.29;89.92;100692.19;5093508;28;20235;-78
2022/01/06 07:28:47;;;;;;;3.20;1.30;;;;;;;0.30;90.40;100693.97;5094303;28;20196;-78
2022/01/06 07:31:13;;;;;;;1.83;1.60;;;;;;;0.36;90.22;100693.25;5093604;28;20196;-78
2022/01/06 07:33:39;;;;;;;2.60;1.00;;;;;;;0.43;90.24;100699.41;5093408;28;20614;-77
2022/01/06 07:36:07;;;;;;;1.97;1.20;;;;;;;0.40;90.45;100687.38;5093646;28;20224;-77
2022/01/06 07:38:33;;;;;;;2.93;1.57;;;;;;;0.43;90.23;100695.13;5094286;28;20207;-77
2022/01/06 07:41:00;;;;;;;2.73;1.87;;;;;;;0.46;90.10;100691.81;5094122;28;20200;-77
2022/01/06 07:43:26;;;;;;;2.33;1.40;;;;;;;0.46;90.14;100694.38;5094391;28;20324;-78
2022/01/06 07:45:54;;;;;;;3.50;1.77;;;;;;;0.48;90.13;100692.72;5093955;28;20216;-77
2022/01/06 07:48:26;;;;;;;3.03;1.60;;;;;;;0.55;90.09;100695.44;5092843;28;20245;-77
2022/01/06 07:50:54;;;;;;;3.33;2.10;;;;;;;0.50;90.75;100691.91;5093180;28;20569;-78
2022/01/06 07:53:20;;;;;;;2.83;1.60;;;;;;;0.56;90.57;100704.03;5093139;28;20197;-78
2022/01/06 07:55:47;;;;;;;4.37;1.70;;;;;;;0.61;90.91;100707.59;5091773;28;20224;-78
2022/01/06 07:58:13;;;;;;;2.83;1.50;;;;;;;0.61;90.34;100714.44;5092384;28;20219;-76
2022/01/06 08:00:40;;;;;;;2.87;1.33;;;;;;;0.67;90.39;100732.56;5091664;28;20196;-77
2022/01/06 08:03:07;;;;;;;2.30;1.67;;;;;;;0.64;90.18;100738.50;5091346;28;20732;-78
2022/01/06 08:05:34;;;;;;;3.00;1.83;;;;;;;0.65;90.54;100735.09;5090763;28;20216;-77
2022/01/06 08:08:00;;;;;;;3.80;2.27;;;;;;;0.68;90.91;100731.75;5092027;28;20201;-78
2022/01/06 08:10:26;;;;;;;2.70;2.13;;;;;;;0.66;90.58;100723.13;5093106;28;20204;-77
2022/01/06 08:12:53;;;;;;;5.53;3.30;;;;;;;0.47;91.40;100719.22;5094365;28;20245;-78
2022/01/06 08:15:19;;;;;;;7.90;3.10;;;;;;;0.60;91.15;100711.00;5093377;28;20220;-78
2022/01/06 08:17:46;;;;;;;5.13;2.50;;;;;;;0.62;90.83;100711.06;5091692;28;20212;-78
2022/01/06 08:20:13;;;;;;;3.27;2.40;;;;;;;0.64;91.15;100720.53;5092773;28;20238;-77
2022/01/06 08:22:40;;;;;;;2.80;2.40;;;;;;;0.65;91.12;100731.66;5092876;28;20195;-77
2022/01/06 08:25:08;;;;;;;3.97;2.67;;;;;;;0.59;90.49;100737.50;5092845;28;20346;-78
2022/01/06 08:27:35;;;;;;;4.50;2.73;;;;;;;0.57;90.73;100746.88;5092730;28;20200;-78
2022/01/06 08:30:01;;;;;;;3.93;2.90;;;;;;;0.55;91.14;100746.81;5092432;28;20197;-77
2022/01/06 08:32:27;;;;;;;6.40;2.83;;;;;;;0.54;91.19;100745.09;5092156;28;20208;-77
2022/01/06 08:34:54;;;;;;;5.13;2.67;;;;;;;0.59;90.88;100746.09;5092417;28;20216;-78
2022/01/06 08:37:21;;;;;;;4.30;3.03;;;;;;;0.61;90.84;100752.97;5092710;28;20203;-77
2022/01/06 08:39:48;;;;;;;4.23;3.23;;;;;;;0.60;90.76;100754.66;5091562;28;20670;-77
2022/01/06 08:42:14;;;;;;;4.23;3.30;;;;;;;0.58;91.07;100759.75;5092435;28;20200;-78
2022/01/06 08:44:41;;;;;;;5.50;3.33;;;;;;;0.58;90.58;100754.63;5091904;28;20193;-77
2022/01/06 08:47:08;;;;;;;4.67;3.20;;;;;;;0.65;90.49;100755.63;5092687;28;20192;-77
2022/01/06 08:49:36;;;;;;;3.70;3.40;;;;;;;0.69;90.83;100754.03;5091821;28;20200;-77
2022/01/06 08:52:03;;;;;;;3.70;3.00;;;;;;;0.72;90.24;100760.13;5089633;28;20682;-77
2022/01/06 08:54:31;;;;;;;5.13;3.67;;;;;;;0.67;91.36;100755.69;5092450;28;20556;-77
2022/01/06 08:56:58;;;;;;;3.73;3.43;;;;;;;0.65;91.52;100747.94;5091691;28;20231;-77
2022/01/06 08:59:24;;;;;;;3.83;3.43;;;;;;;0.59;91.39;100747.78;5091734;28;20200;-77
2022/01/06 09:01:51;;;;;;;4.73;3.47;;;;;;;0.59;91.88;100742.63;5092591;28;20241;-77
2022/01/06 09:04:20;;;;;;;6.07;4.53;;;;;;;0.55;92.54;100713.44;5091875;28;20199;-78
2022/01/06 09:06:47;;;;;;;4.20;3.13;;;;;;;0.62;nan;100708.47;5091563;28;20219;-78
2022/01/06 09:09:13;;;;;;;4.43;3.97;;;;;;;0.72;92.65;100710.44;5092155;28;20208;-79
2022/01/06 09:11:41;;;;;;;5.40;3.30;;;;;;;0.79;92.68;100722.59;5091613;28;20200;-76
2022/01/06 09:14:07;;;;;;;6.93;3.83;;;;;;;0.84;92.64;100727.88;5091463;28;20200;-76
2022/01/06 09:16:34;;;;;;;5.80;3.53;;;;;;;0.91;91.87;100742.59;5091440;28;20587;-78
2022/01/06 09:19:00;;;;;;;12.73;2.93;;;;;;;0.95;92.29;100750.44;5091396;28;20203;-77
2022/01/06 09:21:27;;;;;;;4.23;2.97;;;;;;;0.85;91.98;100747.59;5091245;28;20610;-77
2022/01/06 09:23:54;;;;;;;3.70;3.23;;;;;;;0.91;91.75;100740.03;5091642;28;20200;-76
2022/01/06 09:26:21;;;;;;;5.40;3.40;;;;;;;0.93;92.44;100738.38;5091042;28;20455;-77
2022/01/06 09:28:48;;;;;;;4.53;2.80;;;;;;;0.96;91.21;100753.88;5091381;28;20218;-77
2022/01/06 09:31:15;;;;;;;4.53;3.00;;;;;;;1.07;91.18;100759.28;5091183;28;20196;-77
2022/01/06 09:33:41;;;;;;;4.50;2.80;;;;;;;1.20;91.39;100766.47;5091267;28;20554;-76
2022/01/06 09:36:09;;;;;;;3.30;2.80;;;;;;;1.33;91.16;100770.22;5091013;28;20278;-76
2022/01/06 09:38:36;;;;;;;4.93;2.70;;;;;;;1.27;90.40;100778.66;5091259;28;20272;-77
2022/01/06 09:41:05;;;;;;;4.53;2.20;;;;;;;1.27;91.02;100795.75;5090693;28;20269;-77
2022/01/06 09:43:34;;;;;;;4.60;2.50;;;;;;;1.33;90.18;100803.66;5088937;28;20209;-76
2022/01/06 09:46:06;;;;;;;3.47;2.33;;;;;;;1.42;91.07;100798.69;5091016;28;20220;-77
2022/01/06 09:48:35;;;;;;;5.70;2.83;;;;;;;1.53;90.55;100801.56;5089360;28;20210;-77
2022/01/06 09:51:02;;;;;;;6.20;2.87;;;;;;;1.46;90.58;100821.09;5090427;28;20196;-76
2022/01/06 09:53:28;;;;;;;2.60;2.37;;;;;;;1.34;90.12;100836.22;5091020;28;20196;-77
2022/01/06 09:55:55;;;;;;;2.60;2.40;;;;;;;1.37;90.46;100836.31;5090775;28;20699;-77
2022/01/06 09:58:26;;;;;;;4.33;2.87;;;;;;;1.47;89.98;100838.28;5090824;28;20249;-76
2022/01/06 10:00:55;;;;;;;3.50;2.43;;;;;;;1.39;89.45;100848.38;5094831;28;20207;-76
2022/01/06 10:03:33;;;;;;;6.33;2.90;;;;;;;1.41;90.37;100838.13;5102300;28;20219;-76
2022/01/06 10:06:10;;;;;;;6.23;2.83;;;;;;;1.53;90.20;100841.00;5103923;28;20223;-75
2022/01/06 10:08:36;;;;;;;8.30;3.40;;;;;;;1.41;90.38;100835.56;5096785;28;20192;-76
2022/01/06 10:11:09;;;;;;;6.07;3.90;;;;;;;1.38;90.89;100831.19;5090670;28;20246;-76
2022/01/06 10:13:35;;;;;;;5.87;3.67;;;;;;;1.53;89.95;100825.56;5085918;28;20196;-77
2022/01/06 10:16:15;;;;;;;4.53;3.03;;;;;;;1.51;89.86;100841.81;5091565;28;20227;-77
2022/01/06 10:18:55;;;;;;;5.50;4.43;;;;;;;1.37;90.94;100826.03;5091286;28;20187;-77
2022/01/06 10:21:22;;;;;;;6.70;4.20;;;;;;;1.24;91.07;100813.69;5091647;28;20208;-78
2022/01/06 10:23:58;;;;;;;6.20;4.03;;;;;;;1.27;91.83;100808.59;5091718;28;20220;-77
2022/01/06 10:26:25;;;;;;;5.87;3.70;;;;;;;1.15;92.29;100793.75;5091666;28;20224;-78
2022/01/06 10:28:52;;;;;;;5.80;4.23;;;;;;;1.13;93.22;100775.75;5096460;28;20196;-77
2022/01/06 10:31:23;;;;;;;8.07;4.47;;;;;;;1.27;92.90;100760.66;5096091;28;20586;-79
2022/01/06 10:33:49;;;;;;;6.03;4.60;;;;;;;1.33;93.24;100759.94;5097225;28;20216;-77
2022/01/06 10:36:17;;;;;;;5.13;4.27;;;;;;;1.38;92.74;100766.91;5095184;28;20228;-78
2022/01/06 10:38:53;;;;;;;6.17;4.53;;;;;;;1.43;92.17;100779.00;5096763;28;20253;-78
2022/01/06 10:41:19;;;;;;;7.87;4.30;;;;;;;1.39;92.41;100788.38;5095108;28;20624;-78
2022/01/06 10:43:50;;;;;;;5.70;4.23;;;;;;;1.46;91.95;100792.78;5095551;28;20249;-78
2022/01/06 10:46:27;;;;;;;7.53;4.63;;;;;;;1.52;92.26;100798.09;5096414;28;20230;-79
2022/01/06 10:48:56;;;;;;;9.37;4.93;;;;;;;1.46;92.33;100800.50;5095711;28;20188;-76
2022/01/06 10:51:36;;;;;;;7.73;5.57;;;;;;;1.48;91.14;100804.00;5092550;28;20204;-77
2022/01/06 10:54:04;;;;;;;6.07;4.87;;;;;;;1.53;91.94;100810.13;5092301;28;20233;-78
2022/01/06 10:56:30;;;;;;;6.23;4.80;;;;;;;1.57;92.40;100808.50;5095746;28;20705;-78
2022/01/06 10:58:58;;;;;;;6.80;5.37;;;;;;;1.53;92.31;100810.13;5095315;28;20250;-77
2022/01/06 11:01:25;;;;;;;12.03;5.50;;;;;;;1.55;91.92;100807.59;5095152;28;20660;-78
2022/01/06 11:03:51;;;;;;;8.13;4.33;;;;;;;1.61;92.82;100797.44;5094916;28;20246;-77
2022/01/06 11:06:18;;;;;;;7.27;4.67;;;;;;;1.56;92.27;100805.03;5095254;28;20216;-76
2022/01/06 11:08:46;;;;;;;8.27;5.13;;;;;;;1.68;92.60;100799.31;5094046;28;20226;-77
2022/01/06 11:11:29;;;;;;;8.47;4.83;;;;;;;1.69;92.61;100800.22;5094079;28;20212;-76
2022/01/06 11:13:56;;;;;;;8.93;4.93;;;;;;;1.68;92.07;100807.03;5092749;28;20200;-79
2022/01/06 11:16:22;;;;;;;7.10;4.87;;;;;;;1.75;92.46;100805.50;5094444;28;20617;-79
2022/01/06 11:18:51;;;;;;;6.70;4.53;;;;;;;1.79;92.22;100803.00;5094521;28;20548;-76
2022/01/06 11:21:22;;;;;;;9.60;5.30;;;;;;;1.80;92.38;100801.28;5093923;28;20211;-78
2022/01/06 11:24:01;;;;;;;10.50;5.43;;;;;;;1.81;92.44;100802.19;5091951;28;20267;-77
2022/01/06 11:26:27;;;;;;;14.20;7.33;;;;;;;1.78;93.06;100819.31;5090746;28;20223;-77
2022/01/06 11:28:56;;;;;;;15.43;9.57;;;;;;;1.85;91.87;100814.28;5094033;28;20242;-76
2022/01/06 11:31:24;;;;;;;11.67;7.10;;;;;;;1.86;92.10;100827.16;5092980;28;20197;-77
2022/01/06 11:33:52;;;;;;;9.27;5.87;;;;;;;1.87;92.68;100818.63;5094379;28;20674;-78
2022/01/06 11:36:22;;;;;;;20.07;10.60;;;;;;;1.86;91.93;100834.88;5094156;28;20265;-79